• location
  • image
Airport

April 2014


Siauliai International Airport delegates attended the Nordic Air Cargo Symposium on 7-8 April, 2014 in Stockholm, Sweden. Nordic Air Cargo Symposium is the only regional event focusing on the North European air cargo market, bringing together cargo operators, forwarders, integrators, shippers, airlines, airports, investors, entrepreneurs, suppliers and many more. Due to the current uncertainty concerning where the air cargo industry is heading, all focus was on assessing market trends and how to enhance collaboration between shippers’ needs, forwarders and air carriers.

 

http://www.euroavia.com/nordic/gallery_2014/nordic_gallery_2014.html


APR2014 sw1APR2014 sw2

Today

Monday, 21 April 2014

Weather Forecast

Siauliai 10 °C
   

Aviation Weather Forecast

[source: ADDS]
METAR
EYSA 210150Z 05004KT CAVOK 10/04 Q1018 =
TAF
TAF EYSA 210200Z 2103/2112 07004KT CAVOK BECMG 2107/2108 09014KT =
SR / SS: 03:09 / 17:43 UTC (EYSA 2014-04-21)

Who's Online

We have 6 guests online